createdAt,value
2018-12-15T00:02:31.819Z,8.30
2018-12-15T00:07:25.942Z,7.87
2018-12-15T00:12:19.822Z,8.27
2018-12-15T00:17:13.716Z,7.83
2018-12-15T00:22:07.108Z,8.13
2018-12-15T00:27:01.471Z,8.03
2018-12-15T00:31:54.852Z,7.90
2018-12-15T00:36:48.221Z,8.27
2018-12-15T00:41:42.136Z,8.53
2018-12-15T00:46:36.075Z,9.27
2018-12-15T00:51:29.441Z,7.83
2018-12-15T00:56:22.822Z,8.77
2018-12-15T01:01:16.216Z,7.93
2018-12-15T01:06:10.602Z,8.03
2018-12-15T01:11:04.503Z,8.07
2018-12-15T01:15:57.903Z,8.77
2018-12-15T01:20:52.247Z,8.00
2018-12-15T01:25:46.226Z,8.07
2018-12-15T01:30:40.027Z,10.00
2018-12-15T01:35:33.423Z,7.80
2018-12-15T01:40:27.829Z,9.67
2018-12-15T01:45:21.215Z,8.73
2018-12-15T01:50:15.611Z,8.47
2018-12-15T01:55:09.479Z,7.90
2018-12-15T02:00:03.388Z,8.60
2018-12-15T02:04:57.411Z,7.20
2018-12-15T02:09:51.180Z,8.03
2018-12-15T02:14:44.555Z,9.17
2018-12-15T02:19:39.144Z,9.43
2018-12-15T02:24:32.509Z,8.13
2018-12-15T02:29:26.747Z,7.07
2018-12-15T02:34:20.139Z,8.03
2018-12-15T02:39:14.511Z,8.47
2018-12-15T02:44:07.999Z,7.90
2018-12-15T02:49:02.277Z,8.97
2018-12-15T02:53:55.639Z,9.10
2018-12-15T02:58:49.077Z,7.77
2018-12-15T03:03:42.459Z,9.57
2018-12-15T03:08:36.825Z,9.73
2018-12-15T03:13:30.287Z,10.27
2018-12-15T03:18:24.706Z,9.23
2018-12-15T03:23:18.559Z,9.83
2018-12-15T03:28:12.415Z,9.37
2018-12-15T03:33:05.802Z,8.97
2018-12-15T03:38:00.208Z,9.13
2018-12-15T03:42:53.625Z,9.43
2018-12-15T03:47:47.004Z,8.70
2018-12-15T03:52:40.829Z,9.07
2018-12-15T03:57:34.949Z,8.33
2018-12-15T04:02:28.335Z,10.73
2018-12-15T04:07:22.507Z,9.17
2018-12-15T04:12:15.901Z,10.27
2018-12-15T04:17:10.359Z,8.27
2018-12-15T04:22:19.482Z,10.20
2018-12-15T04:27:13.480Z,8.13
2018-12-15T04:32:07.308Z,9.30
2018-12-15T04:37:01.240Z,9.50
2018-12-15T04:41:55.106Z,9.10
2018-12-15T04:46:48.976Z,10.43
2018-12-15T04:51:42.371Z,9.43
2018-12-15T04:56:36.806Z,10.37
2018-12-15T05:01:30.214Z,9.97
2018-12-15T05:06:24.546Z,8.83
2018-12-15T05:11:18.462Z,8.60
2018-12-15T05:16:12.343Z,9.23
2018-12-15T05:21:06.337Z,10.03
2018-12-15T05:25:59.736Z,8.13
2018-12-15T05:30:54.030Z,9.37
2018-12-15T05:35:47.400Z,9.07
2018-12-15T05:40:41.796Z,8.50
2018-12-15T05:45:35.174Z,9.57
2018-12-15T05:50:28.551Z,9.20
2018-12-15T05:55:21.982Z,8.87
2018-12-15T06:00:16.363Z,9.60
2018-12-15T06:05:10.233Z,9.50
2018-12-15T06:10:03.883Z,8.83
2018-12-15T06:14:57.254Z,9.27
2018-12-15T06:19:50.893Z,9.83
2018-12-15T06:24:44.284Z,8.57
2018-12-15T06:29:37.703Z,9.43
2018-12-15T06:34:31.098Z,8.80
2018-12-15T06:39:25.421Z,8.87
2018-12-15T06:44:18.834Z,9.70
2018-12-15T06:49:13.219Z,9.40
2018-12-15T06:54:06.602Z,9.27
2018-12-15T06:59:00.987Z,9.70
2018-12-15T07:03:54.435Z,8.10
2018-12-15T07:08:48.799Z,8.40
2018-12-15T07:13:42.244Z,9.53
2018-12-15T07:18:36.539Z,8.93
2018-12-15T07:23:29.951Z,10.83
2018-12-15T07:28:24.423Z,9.33
2018-12-15T07:33:17.828Z,8.10
2018-12-15T07:38:11.213Z,8.43
2018-12-15T07:43:04.979Z,8.23
2018-12-15T07:47:58.868Z,9.13
2018-12-15T07:52:52.279Z,9.23
2018-12-15T07:57:46.683Z,8.27
2018-12-15T08:02:40.656Z,8.03
2018-12-15T08:07:34.449Z,8.30
2018-12-15T08:12:43.338Z,8.97
2018-12-15T08:17:36.770Z,8.50
2018-12-15T08:22:30.165Z,7.00
2018-12-15T08:27:25.359Z,7.80
2018-12-15T08:32:19.263Z,6.60
2018-12-15T08:37:13.207Z,5.20
2018-12-15T08:42:06.585Z,7.00
2018-12-15T08:47:00.927Z,7.23
2018-12-15T08:51:54.851Z,5.47
2018-12-15T08:56:48.714Z,5.37
2018-12-15T09:01:43.012Z,6.70
2018-12-15T09:06:36.507Z,6.20
2018-12-15T09:11:30.377Z,6.13
2018-12-15T09:16:26.580Z,6.30
2018-12-15T09:21:17.663Z,7.07
2018-12-15T09:26:12.072Z,6.70
2018-12-15T09:31:07.145Z,5.90
2018-12-15T09:36:00.520Z,6.97
2018-12-15T09:40:53.900Z,4.63
2018-12-15T09:45:47.298Z,6.17
2018-12-15T09:50:41.525Z,6.20
2018-12-15T09:55:34.935Z,5.57
2018-12-15T10:00:29.303Z,6.10
2018-12-15T10:05:23.211Z,5.77
2018-12-15T10:10:17.097Z,6.10
2018-12-15T10:15:10.516Z,6.00
2018-12-15T10:20:05.129Z,6.33
2018-12-15T10:24:58.828Z,5.80
2018-12-15T10:30:10.573Z,7.40
2018-12-15T10:35:04.150Z,6.47
2018-12-15T10:39:57.641Z,6.23
2018-12-15T10:44:51.023Z,7.17
2018-12-15T10:49:44.702Z,5.07
2018-12-15T10:54:38.149Z,5.43
2018-12-15T10:59:32.385Z,6.93
2018-12-15T11:04:26.267Z,6.80
2018-12-15T11:09:20.212Z,6.43
2018-12-15T11:14:14.063Z,6.30
2018-12-15T11:19:07.947Z,5.70
2018-12-15T11:24:01.362Z,6.07
2018-12-15T11:28:55.753Z,6.73
2018-12-15T11:33:49.636Z,8.37
2018-12-15T11:38:43.544Z,5.40
2018-12-15T11:43:36.979Z,6.80
2018-12-15T11:48:31.295Z,5.90
2018-12-15T11:53:24.712Z,6.93
2018-12-15T11:58:22.163Z,5.57
2018-12-15T12:03:16.037Z,6.47
2018-12-15T12:08:09.936Z,8.10
2018-12-15T12:13:03.409Z,7.73
2018-12-15T12:17:57.699Z,5.87
2018-12-15T12:22:51.605Z,5.67
2018-12-15T12:27:45.564Z,6.17
2018-12-15T12:32:40.582Z,5.97
2018-12-15T12:37:36.349Z,6.77
2018-12-15T12:42:29.751Z,6.87
2018-12-15T12:47:24.126Z,5.90
2018-12-15T12:52:18.026Z,7.37
2018-12-15T12:57:11.887Z,6.27
2018-12-15T13:02:05.529Z,7.53
2018-12-15T13:06:58.932Z,8.10
2018-12-15T13:11:52.583Z,6.93
2018-12-15T13:16:46.490Z,6.83
2018-12-15T13:21:40.329Z,9.00
2018-12-15T13:26:34.487Z,6.87
2018-12-15T13:31:28.158Z,11.07
2018-12-15T13:36:21.528Z,8.90
2018-12-15T13:41:14.975Z,7.70
2018-12-15T13:46:08.367Z,10.33
2018-12-15T13:51:02.689Z,10.07
2018-12-15T13:55:56.114Z,8.87
2018-12-15T14:00:49.557Z,7.93
2018-12-15T14:05:43.002Z,8.33
2018-12-15T14:10:37.208Z,8.17
2018-12-15T14:15:30.590Z,8.03
2018-12-15T14:20:24.989Z,7.33
2018-12-15T14:25:18.880Z,9.60
2018-12-15T14:30:12.841Z,7.70
2018-12-15T14:35:06.394Z,10.57
2018-12-15T14:40:00.583Z,10.20
2018-12-15T14:44:54.034Z,12.40
2018-12-15T14:49:48.336Z,9.90
2018-12-15T14:54:41.734Z,9.87
2018-12-15T14:59:35.473Z,10.97
2018-12-15T15:04:28.850Z,9.53
2018-12-15T15:09:22.860Z,13.00
2018-12-15T15:14:16.750Z,11.30
2018-12-15T15:19:10.623Z,12.67
2018-12-15T15:24:04.592Z,11.77
2018-12-15T15:28:58.467Z,14.33
2018-12-15T15:33:52.384Z,11.37
2018-12-15T15:38:46.230Z,10.93
2018-12-15T15:43:39.647Z,11.27
2018-12-15T15:48:35.086Z,9.57
2018-12-15T15:53:28.906Z,11.47
2018-12-15T15:58:22.863Z,12.17
2018-12-15T16:03:16.260Z,9.80
2018-12-15T16:08:10.601Z,12.23
2018-12-15T16:13:04.526Z,10.57
2018-12-15T16:17:58.408Z,12.57
2018-12-15T16:22:51.845Z,12.17
2018-12-15T16:27:46.197Z,12.23
2018-12-15T16:32:39.544Z,11.97
2018-12-15T16:37:34.030Z,10.03
2018-12-15T16:42:27.969Z,11.13
2018-12-15T16:47:21.764Z,14.00
2018-12-15T16:52:15.624Z,12.10
2018-12-15T16:57:09.500Z,12.03
2018-12-15T17:02:03.651Z,15.23
2018-12-15T17:06:57.293Z,14.07
2018-12-15T17:11:51.181Z,14.00
2018-12-15T17:16:44.574Z,13.70
2018-12-15T17:21:37.989Z,11.37
2018-12-15T17:26:31.823Z,12.13
2018-12-15T17:31:25.287Z,13.50
2018-12-15T17:36:19.608Z,12.10
2018-12-15T17:41:13.011Z,11.10
2018-12-15T17:46:07.496Z,13.00
2018-12-15T17:51:03.427Z,16.07
2018-12-15T17:55:54.820Z,11.73
2018-12-15T18:00:49.139Z,14.47
2018-12-15T18:05:42.534Z,14.20
2018-12-15T18:10:36.864Z,14.10
2018-12-15T18:15:30.318Z,13.67
2018-12-15T18:20:24.637Z,13.03
2018-12-15T18:25:18.068Z,14.27
2018-12-15T18:30:11.562Z,12.13
2018-12-15T18:35:04.988Z,12.53
2018-12-15T18:39:58.374Z,11.93
2018-12-15T18:44:52.036Z,14.40
2018-12-15T18:49:45.910Z,15.30
2018-12-15T18:54:39.283Z,13.13
2018-12-15T18:59:34.479Z,14.03
2018-12-15T19:04:29.001Z,14.80
2018-12-15T19:09:22.381Z,10.90
2018-12-15T19:14:15.748Z,11.97
2018-12-15T19:19:09.448Z,12.30
2018-12-15T19:24:02.843Z,12.67
2018-12-15T19:28:56.268Z,11.73
2018-12-15T19:33:49.612Z,11.33
2018-12-15T19:38:43.005Z,10.90
2018-12-15T19:43:36.384Z,12.43
2018-12-15T19:48:29.848Z,10.85
2018-12-15T19:53:23.268Z,12.30
2018-12-15T19:58:17.384Z,11.17
2018-12-15T20:03:10.796Z,14.30
2018-12-15T20:08:05.097Z,18.97
2018-12-15T20:12:58.549Z,12.30
2018-12-15T20:17:52.935Z,10.67
2018-12-15T20:22:46.307Z,14.53
2018-12-15T20:27:40.698Z,11.20
2018-12-15T20:32:34.135Z,12.13
2018-12-15T20:37:28.434Z,11.93
2018-12-15T20:42:21.833Z,11.83
2018-12-15T20:47:16.246Z,10.67
2018-12-15T20:52:09.693Z,11.20
2018-12-15T20:57:04.018Z,12.03
2018-12-15T21:01:57.472Z,11.53
2018-12-15T21:06:50.841Z,11.40
2018-12-15T21:11:44.220Z,10.47
2018-12-15T21:16:37.610Z,9.70
2018-12-15T21:21:31.173Z,11.73
2018-12-15T21:26:25.321Z,10.50
2018-12-15T21:31:19.192Z,9.97
2018-12-15T21:36:12.574Z,11.40
2018-12-15T21:41:05.970Z,12.10
2018-12-15T21:45:59.367Z,13.20
2018-12-15T21:50:53.735Z,11.53
2018-12-15T21:55:47.623Z,11.80
2018-12-15T22:00:41.550Z,10.47
2018-12-15T22:05:35.318Z,10.60
2018-12-15T22:10:29.302Z,8.53
2018-12-15T22:15:22.674Z,9.07
2018-12-15T22:20:17.086Z,7.60
2018-12-15T22:25:10.519Z,9.20
2018-12-15T22:30:05.225Z,7.70
2018-12-15T22:34:58.738Z,10.67
2018-12-15T22:39:52.643Z,6.57
2018-12-15T22:44:46.000Z,6.10
2018-12-15T22:49:40.449Z,7.60
2018-12-15T22:54:34.306Z,7.00
2018-12-15T22:59:28.257Z,7.57
2018-12-15T23:04:21.665Z,7.20
2018-12-15T23:09:15.169Z,7.50
2018-12-15T23:14:08.529Z,14.37
2018-12-15T23:19:02.769Z,10.13
2018-12-15T23:23:56.171Z,10.83
2018-12-15T23:28:50.525Z,9.37
2018-12-15T23:33:43.900Z,10.63
2018-12-15T23:38:37.302Z,11.27
2018-12-15T23:43:30.705Z,11.67
2018-12-15T23:48:25.071Z,11.53
2018-12-15T23:53:18.460Z,10.67
2018-12-15T23:58:11.860Z,10.60
